createdAt,value
2023-01-31T00:00:09.912Z,1009.06
2023-01-31T00:01:09.898Z,1009.03
2023-01-31T00:02:09.879Z,1009.01
2023-01-31T00:03:09.895Z,1009.07
2023-01-31T00:04:09.865Z,1009.05
2023-01-31T00:05:09.806Z,1009.05
2023-01-31T00:06:09.792Z,1009.12
2023-01-31T00:07:09.812Z,1009.12
2023-01-31T00:08:09.768Z,1009.05
2023-01-31T00:09:09.770Z,1009.08
2023-01-31T00:10:09.771Z,1009.05
2023-01-31T00:11:09.749Z,1009.07
2023-01-31T00:12:09.763Z,1009.10
2023-01-31T00:13:09.721Z,1009.18
2023-01-31T00:14:09.703Z,1009.17
2023-01-31T00:15:09.699Z,1009.27
2023-01-31T00:16:09.973Z,1009.17
2023-01-31T00:17:09.684Z,1009.15
2023-01-31T00:18:09.662Z,1009.18
2023-01-31T00:19:09.650Z,1009.16
2023-01-31T00:20:09.638Z,1009.21
2023-01-31T00:21:09.624Z,1009.30
2023-01-31T00:22:09.663Z,1009.16
2023-01-31T00:23:09.611Z,1009.21
2023-01-31T00:24:09.591Z,1009.30
2023-01-31T00:25:09.589Z,1009.29
2023-01-31T00:26:09.723Z,1009.30
2023-01-31T00:27:09.559Z,1009.28
2023-01-31T00:28:09.543Z,1009.37
2023-01-31T00:29:09.576Z,1009.35
2023-01-31T00:30:09.532Z,1009.33
2023-01-31T00:31:09.620Z,1009.32
2023-01-31T00:32:09.727Z,1009.38
2023-01-31T00:33:09.502Z,1009.35
2023-01-31T00:34:09.528Z,1009.38
2023-01-31T00:35:09.468Z,1009.41
2023-01-31T00:36:09.460Z,1009.37
2023-01-31T00:37:09.450Z,1009.44
2023-01-31T00:38:09.435Z,1009.38
2023-01-31T00:39:09.469Z,1009.46
2023-01-31T00:40:09.415Z,1009.44
2023-01-31T00:41:09.416Z,1009.57
2023-01-31T00:42:09.389Z,1009.51
2023-01-31T00:43:09.382Z,1009.44
2023-01-31T00:44:09.405Z,1009.54
2023-01-31T00:45:09.361Z,1009.62
2023-01-31T00:46:09.348Z,1009.69
2023-01-31T00:47:09.340Z,1009.64
2023-01-31T00:48:09.347Z,1009.57
2023-01-31T00:49:09.491Z,1009.64
2023-01-31T00:50:09.302Z,1009.69
2023-01-31T00:51:09.299Z,1009.77
2023-01-31T00:52:09.331Z,1009.75
2023-01-31T00:53:09.276Z,1009.70
2023-01-31T00:54:09.287Z,1009.74
2023-01-31T00:55:09.250Z,1009.66
2023-01-31T00:56:09.238Z,1009.72
2023-01-31T00:57:09.228Z,1009.69
2023-01-31T00:58:09.211Z,1009.71
2023-01-31T00:59:09.244Z,1009.72
2023-01-31T01:00:09.192Z,1009.79
2023-01-31T01:01:09.218Z,1009.71
2023-01-31T01:02:09.213Z,1009.75
2023-01-31T01:03:09.167Z,1009.86
2023-01-31T01:04:09.233Z,1009.80
2023-01-31T01:05:09.142Z,1009.86
2023-01-31T01:06:09.127Z,1009.90
2023-01-31T01:07:09.119Z,1009.81
2023-01-31T01:08:09.111Z,1009.94
2023-01-31T01:09:09.129Z,1009.92
2023-01-31T01:10:09.087Z,1009.97
2023-01-31T01:11:09.071Z,1009.90
2023-01-31T01:12:09.062Z,1009.99
2023-01-31T01:13:09.057Z,1009.84
2023-01-31T01:14:09.073Z,1009.94
2023-01-31T01:15:09.037Z,1009.88
2023-01-31T01:16:09.021Z,1009.89
2023-01-31T01:17:09.008Z,1010.05
2023-01-31T01:18:09.004Z,1009.99
2023-01-31T01:19:09.013Z,1010.06
2023-01-31T01:20:08.992Z,1010.07
2023-01-31T01:21:09.023Z,1010.14
2023-01-31T01:22:08.956Z,1010.07
2023-01-31T01:23:08.950Z,1010.10
2023-01-31T01:24:08.931Z,1010.10
2023-01-31T01:25:08.918Z,1010.08
2023-01-31T01:26:08.908Z,1009.99
2023-01-31T01:27:08.933Z,1010.10
2023-01-31T01:28:08.885Z,1010.13
2023-01-31T01:29:08.885Z,1010.05
2023-01-31T01:30:08.868Z,1009.94
2023-01-31T01:31:08.979Z,1010.10
2023-01-31T01:32:08.995Z,1009.98
2023-01-31T01:33:08.836Z,1010.05
2023-01-31T01:34:08.827Z,1010.00
2023-01-31T01:35:08.810Z,1010.00
2023-01-31T01:36:08.922Z,1010.07
2023-01-31T01:37:08.863Z,1010.12
2023-01-31T01:38:08.778Z,1010.11
2023-01-31T01:39:08.763Z,1010.12
2023-01-31T01:40:08.759Z,1010.05
2023-01-31T01:41:08.765Z,1010.10
2023-01-31T01:42:08.780Z,1010.15
2023-01-31T01:43:08.727Z,1010.13
2023-01-31T01:44:08.714Z,1010.11
2023-01-31T01:45:08.701Z,1010.15
2023-01-31T01:46:08.755Z,1010.17
2023-01-31T01:47:08.679Z,1010.23
2023-01-31T01:48:08.673Z,1010.33
2023-01-31T01:49:08.654Z,1010.19
2023-01-31T01:50:08.656Z,1010.23
2023-01-31T01:51:08.637Z,1010.21
2023-01-31T01:52:08.715Z,1010.31
2023-01-31T01:53:08.616Z,1010.31
2023-01-31T01:54:08.608Z,1010.29
2023-01-31T01:55:08.593Z,1010.38
2023-01-31T01:56:08.600Z,1010.40
2023-01-31T01:57:08.606Z,1010.44
2023-01-31T01:58:08.564Z,1010.42
2023-01-31T01:59:08.553Z,1010.49
2023-01-31T02:00:08.550Z,1010.55
2023-01-31T02:01:08.553Z,1010.57
2023-01-31T02:02:08.620Z,1010.47
2023-01-31T02:03:08.505Z,1010.57
2023-01-31T02:04:08.494Z,1010.52
2023-01-31T02:05:08.486Z,1010.53
2023-01-31T02:06:08.477Z,1010.51
2023-01-31T02:07:08.508Z,1010.58
2023-01-31T02:08:08.478Z,1010.60
2023-01-31T02:09:08.438Z,1010.57
2023-01-31T02:10:08.426Z,1010.64
2023-01-31T02:11:08.415Z,1010.62
2023-01-31T02:12:08.405Z,1010.67
2023-01-31T02:13:08.475Z,1010.63
2023-01-31T02:14:08.391Z,1010.66
2023-01-31T02:15:08.369Z,1010.68
2023-01-31T02:16:08.485Z,1010.63
2023-01-31T02:17:08.348Z,1010.65
2023-01-31T02:18:08.339Z,1010.67
2023-01-31T02:19:08.337Z,1010.71
2023-01-31T02:20:08.328Z,1010.73
2023-01-31T02:21:08.340Z,1010.67
2023-01-31T02:22:08.296Z,1010.82
2023-01-31T02:23:08.284Z,1010.90
2023-01-31T02:24:08.295Z,1010.85
2023-01-31T02:25:08.259Z,1010.93
2023-01-31T02:26:08.297Z,1011.03
2023-01-31T02:27:08.252Z,1011.04
2023-01-31T02:28:08.237Z,1010.97
2023-01-31T02:29:08.232Z,1011.09
2023-01-31T02:30:08.214Z,1011.03
2023-01-31T02:31:08.331Z,1011.13
2023-01-31T02:32:10.644Z,1011.02
2023-01-31T02:33:08.176Z,1011.14
2023-01-31T02:34:08.173Z,1011.14
2023-01-31T02:35:08.328Z,1011.11
2023-01-31T02:36:08.143Z,1011.12
2023-01-31T02:37:08.138Z,1011.18
2023-01-31T02:38:08.121Z,1011.26
2023-01-31T02:39:08.125Z,1011.24
2023-01-31T02:40:08.140Z,1011.25
2023-01-31T02:41:08.098Z,1011.31
2023-01-31T02:42:08.075Z,1011.26
2023-01-31T02:43:08.090Z,1011.20
2023-01-31T02:44:08.068Z,1011.28
2023-01-31T02:45:08.039Z,1011.22
2023-01-31T02:46:08.127Z,1011.19
2023-01-31T02:47:08.018Z,1011.24
2023-01-31T02:48:08.075Z,1011.21
2023-01-31T02:49:08.013Z,1011.17
2023-01-31T02:50:08.016Z,1011.20
2023-01-31T02:51:07.982Z,1011.14
2023-01-31T02:52:07.967Z,1011.14
2023-01-31T02:53:07.955Z,1011.16
2023-01-31T02:54:07.964Z,1011.10
2023-01-31T02:55:07.977Z,1011.13
2023-01-31T02:56:07.945Z,1011.12
2023-01-31T02:57:07.918Z,1011.14
2023-01-31T02:58:07.906Z,1011.05
2023-01-31T02:59:07.895Z,1011.13
2023-01-31T03:00:07.884Z,1011.04
2023-01-31T03:01:07.954Z,1011.04
2023-01-31T03:02:08.033Z,1011.01
2023-01-31T03:03:07.861Z,1010.98
2023-01-31T03:04:07.838Z,1011.05
2023-01-31T03:05:07.829Z,1011.02
2023-01-31T03:06:07.853Z,1011.11
2023-01-31T03:07:07.801Z,1011.07
2023-01-31T03:08:07.791Z,1011.06
2023-01-31T03:09:07.785Z,1011.10
2023-01-31T03:10:07.769Z,1011.11
2023-01-31T03:11:07.757Z,1011.04
2023-01-31T03:12:07.790Z,1011.10
2023-01-31T03:13:07.735Z,1011.05
2023-01-31T03:14:07.730Z,1011.19
2023-01-31T03:15:07.717Z,1011.07
2023-01-31T03:16:07.700Z,1011.07
2023-01-31T03:17:07.706Z,1011.11
2023-01-31T03:18:07.689Z,1011.10
2023-01-31T03:19:07.665Z,1011.05
2023-01-31T03:20:07.661Z,1011.10
2023-01-31T03:21:07.649Z,1011.09
2023-01-31T03:22:07.677Z,1011.12
2023-01-31T03:23:07.625Z,1011.11
2023-01-31T03:24:07.631Z,1011.11
2023-01-31T03:25:07.609Z,1011.12
2023-01-31T03:26:07.604Z,1011.19
2023-01-31T03:27:07.584Z,1011.10
2023-01-31T03:28:07.619Z,1011.15
2023-01-31T03:29:07.559Z,1011.05
2023-01-31T03:30:07.557Z,1011.24
2023-01-31T03:31:07.606Z,1011.17
2023-01-31T03:32:07.530Z,1011.24
2023-01-31T03:33:07.542Z,1011.24
2023-01-31T03:34:07.518Z,1011.30
2023-01-31T03:35:07.497Z,1011.36
2023-01-31T03:36:07.488Z,1011.33
2023-01-31T03:37:07.471Z,1011.33
2023-01-31T03:38:07.492Z,1011.34
2023-01-31T03:39:07.478Z,1011.35
2023-01-31T03:40:07.450Z,1011.48
2023-01-31T03:41:07.426Z,1011.46
2023-01-31T03:42:07.479Z,1011.42
2023-01-31T03:43:07.410Z,1011.36
2023-01-31T03:44:07.454Z,1011.41
2023-01-31T03:45:07.409Z,1011.37
2023-01-31T03:46:07.440Z,1011.42
2023-01-31T03:47:07.369Z,1011.52
2023-01-31T03:48:07.363Z,1011.53
2023-01-31T03:49:07.344Z,1011.42
2023-01-31T03:50:07.356Z,1011.52
2023-01-31T03:51:07.322Z,1011.54
2023-01-31T03:52:07.321Z,1011.50
2023-01-31T03:53:07.300Z,1011.54
2023-01-31T03:54:07.294Z,1011.54
2023-01-31T03:55:07.294Z,1011.50
2023-01-31T03:56:07.273Z,1011.55
2023-01-31T03:57:07.261Z,1011.50
2023-01-31T03:58:07.254Z,1011.53
2023-01-31T03:59:07.239Z,1011.58
2023-01-31T04:00:07.309Z,1011.60
2023-01-31T04:01:07.216Z,1011.56
2023-01-31T04:02:07.203Z,1011.58
2023-01-31T04:03:07.241Z,1011.68
2023-01-31T04:04:07.186Z,1011.57
2023-01-31T04:05:07.175Z,1011.62
2023-01-31T04:06:07.186Z,1011.60
2023-01-31T04:07:07.158Z,1011.57
2023-01-31T04:08:07.159Z,1011.53
2023-01-31T04:09:07.134Z,1011.60
2023-01-31T04:10:07.130Z,1011.63
2023-01-31T04:11:07.127Z,1011.59
2023-01-31T04:12:07.109Z,1011.61
2023-01-31T04:13:07.095Z,1011.55
2023-01-31T04:14:07.088Z,1011.56
2023-01-31T04:15:07.078Z,1011.57
2023-01-31T04:16:07.212Z,1011.53
2023-01-31T04:17:07.049Z,1011.56
2023-01-31T04:18:07.043Z,1011.56
2023-01-31T04:19:07.029Z,1011.55
2023-01-31T04:20:07.025Z,1011.50
2023-01-31T04:21:07.022Z,1011.57
2023-01-31T04:22:06.997Z,1011.47
2023-01-31T04:23:06.990Z,1011.47
2023-01-31T04:24:06.976Z,1011.51
2023-01-31T04:25:06.966Z,1011.52
2023-01-31T04:26:06.984Z,1011.50
2023-01-31T04:27:06.946Z,1011.48
2023-01-31T04:28:06.935Z,1011.49
2023-01-31T04:29:06.951Z,1011.56
2023-01-31T04:30:06.924Z,1011.50
2023-01-31T04:31:06.989Z,1011.55
2023-01-31T04:32:06.990Z,1011.54
2023-01-31T04:33:06.888Z,1011.52
2023-01-31T04:34:06.900Z,1011.54
2023-01-31T04:35:06.863Z,1011.53
2023-01-31T04:36:06.851Z,1011.54
2023-01-31T04:37:06.841Z,1011.59
2023-01-31T04:38:06.831Z,1011.61
2023-01-31T04:39:06.876Z,1011.61
2023-01-31T04:40:06.810Z,1011.67
2023-01-31T04:41:06.791Z,1011.66
2023-01-31T04:42:06.792Z,1011.71
2023-01-31T04:43:06.780Z,1011.63
2023-01-31T04:44:06.788Z,1011.78
2023-01-31T04:45:06.752Z,1011.86
2023-01-31T04:46:06.746Z,1011.90
2023-01-31T04:47:06.730Z,1011.95
2023-01-31T04:48:06.755Z,1011.96
2023-01-31T04:49:06.737Z,1011.94
2023-01-31T04:50:06.717Z,1012.03
2023-01-31T04:51:07.139Z,1012.01
2023-01-31T04:52:07.379Z,1012.08
2023-01-31T04:53:07.164Z,1012.07
2023-01-31T04:54:07.026Z,1012.11
2023-01-31T04:55:06.874Z,1012.15
2023-01-31T04:56:06.799Z,1012.11
2023-01-31T04:57:06.747Z,1012.09
2023-01-31T04:58:07.540Z,1012.09
2023-01-31T04:59:06.611Z,1012.06
2023-01-31T05:00:06.625Z,1012.06
2023-01-31T05:01:06.682Z,1012.06
2023-01-31T05:02:06.591Z,1012.06
2023-01-31T05:03:06.863Z,1012.10
2023-01-31T05:04:07.032Z,1012.05
2023-01-31T05:05:06.994Z,1012.01
2023-01-31T05:06:06.938Z,1012.05
2023-01-31T05:07:06.812Z,1012.09
2023-01-31T05:08:06.691Z,1012.04
2023-01-31T05:09:06.666Z,1011.99
2023-01-31T05:10:06.513Z,1012.02
2023-01-31T05:11:06.475Z,1011.98
2023-01-31T05:12:06.490Z,1012.00
2023-01-31T05:13:06.476Z,1011.91
2023-01-31T05:14:06.968Z,1011.96
2023-01-31T05:15:06.990Z,1011.89
2023-01-31T05:16:06.912Z,1011.91
2023-01-31T05:17:06.876Z,1011.87
2023-01-31T05:18:06.730Z,1011.93
2023-01-31T05:19:06.682Z,1011.91
2023-01-31T05:20:06.619Z,1011.90
2023-01-31T05:21:06.381Z,1011.84
2023-01-31T05:22:06.530Z,1011.88
2023-01-31T05:23:06.351Z,1011.94
2023-01-31T05:24:06.350Z,1011.89
2023-01-31T05:25:06.332Z,1011.96
2023-01-31T05:26:06.372Z,1011.91
2023-01-31T05:27:06.924Z,1011.93
2023-01-31T05:28:06.810Z,1011.81
2023-01-31T05:29:06.685Z,1011.91
2023-01-31T05:30:06.604Z,1011.97
2023-01-31T05:31:06.893Z,1012.00
2023-01-31T05:32:06.342Z,1011.97
2023-01-31T05:33:06.420Z,1012.02
2023-01-31T05:34:06.372Z,1012.02
2023-01-31T05:35:06.224Z,1012.05
2023-01-31T05:36:06.252Z,1012.13
2023-01-31T05:37:06.231Z,1012.09
2023-01-31T05:38:06.205Z,1012.10
2023-01-31T05:39:06.183Z,1012.10
2023-01-31T05:40:06.575Z,1012.14
2023-01-31T05:41:06.617Z,1012.16
2023-01-31T05:42:06.565Z,1012.20
2023-01-31T05:43:06.677Z,1012.21
2023-01-31T05:44:06.396Z,1012.20
2023-01-31T05:45:06.358Z,1012.25
2023-01-31T05:46:06.214Z,1012.24
2023-01-31T05:47:06.124Z,1012.26
2023-01-31T05:48:06.089Z,1012.26
2023-01-31T05:49:06.084Z,1012.27
2023-01-31T05:50:06.624Z,1012.24
2023-01-31T05:51:06.062Z,1012.18
2023-01-31T05:52:06.101Z,1012.20
2023-01-31T05:53:06.389Z,1012.16
2023-01-31T05:54:06.027Z,1012.24
2023-01-31T05:55:06.018Z,1012.14
2023-01-31T05:56:06.011Z,1012.21
2023-01-31T05:57:06.001Z,1012.20
2023-01-31T05:58:06.014Z,1012.28
2023-01-31T05:59:05.979Z,1012.26
2023-01-31T06:00:05.960Z,1012.26
2023-01-31T06:01:05.987Z,1012.24
2023-01-31T06:02:06.018Z,1012.24
2023-01-31T06:03:05.956Z,1012.29
2023-01-31T06:04:05.921Z,1012.29
2023-01-31T06:05:05.910Z,1012.30
2023-01-31T06:06:05.936Z,1012.23
2023-01-31T06:07:05.910Z,1012.21
2023-01-31T06:08:05.896Z,1012.23
2023-01-31T06:09:05.874Z,1012.29
2023-01-31T06:10:05.858Z,1012.26
2023-01-31T06:11:05.853Z,1012.27
2023-01-31T06:12:05.858Z,1012.28
2023-01-31T06:13:05.829Z,1012.18
2023-01-31T06:14:05.835Z,1012.27
2023-01-31T06:15:05.811Z,1012.21
2023-01-31T06:16:05.796Z,1012.21
2023-01-31T06:17:05.781Z,1012.31
2023-01-31T06:18:05.793Z,1012.26
2023-01-31T06:19:05.762Z,1012.25
2023-01-31T06:20:05.751Z,1012.30
2023-01-31T06:21:05.764Z,1012.27
2023-01-31T06:22:05.724Z,1012.26
2023-01-31T06:23:05.742Z,1012.26
2023-01-31T06:24:05.762Z,1012.28
2023-01-31T06:25:05.697Z,1012.28
2023-01-31T06:26:05.677Z,1012.34
2023-01-31T06:27:05.679Z,1012.33
2023-01-31T06:28:05.657Z,1012.30
2023-01-31T06:29:05.677Z,1012.32
2023-01-31T06:30:05.640Z,1012.33
2023-01-31T06:31:05.998Z,1012.34
2023-01-31T06:32:05.622Z,1012.34
2023-01-31T06:33:05.650Z,1012.43
2023-01-31T06:34:05.603Z,1012.45
2023-01-31T06:35:05.626Z,1012.48
2023-01-31T06:36:05.587Z,1012.46
2023-01-31T06:37:05.575Z,1012.43
2023-01-31T06:38:05.555Z,1012.53
2023-01-31T06:39:05.570Z,1012.42
2023-01-31T06:40:05.557Z,1012.49
2023-01-31T06:41:05.544Z,1012.51
2023-01-31T06:42:05.552Z,1012.49
2023-01-31T06:43:05.507Z,1012.51
2023-01-31T06:44:05.529Z,1012.58
2023-01-31T06:45:05.493Z,1012.43
2023-01-31T06:46:05.585Z,1012.45
2023-01-31T06:47:05.467Z,1012.43
2023-01-31T06:48:05.451Z,1012.44
2023-01-31T06:49:05.451Z,1012.39
2023-01-31T06:50:05.462Z,1012.40
2023-01-31T06:51:05.423Z,1012.50
2023-01-31T06:52:05.410Z,1012.48
2023-01-31T06:53:05.399Z,1012.47
2023-01-31T06:54:05.388Z,1012.47
2023-01-31T06:55:05.397Z,1012.50
2023-01-31T06:56:05.410Z,1012.57
2023-01-31T06:57:05.358Z,1012.45
2023-01-31T06:58:05.345Z,1012.55
2023-01-31T06:59:05.348Z,1012.46
2023-01-31T07:00:05.364Z,1012.48
2023-01-31T07:01:05.311Z,1012.52
2023-01-31T07:02:05.295Z,1012.45
2023-01-31T07:03:05.292Z,1012.46
2023-01-31T07:04:05.273Z,1012.45
2023-01-31T07:05:05.376Z,1012.49
2023-01-31T07:06:05.263Z,1012.48
2023-01-31T07:07:05.246Z,1012.52
2023-01-31T07:08:05.237Z,1012.47
2023-01-31T07:09:05.232Z,1012.54
2023-01-31T07:10:05.278Z,1012.50
2023-01-31T07:11:05.219Z,1012.47
2023-01-31T07:12:05.219Z,1012.48
2023-01-31T07:13:05.182Z,1012.45
2023-01-31T07:14:05.170Z,1012.42
2023-01-31T07:15:05.171Z,1012.46
2023-01-31T07:16:05.243Z,1012.43
2023-01-31T07:17:05.143Z,1012.47
2023-01-31T07:18:05.127Z,1012.44
2023-01-31T07:19:05.127Z,1012.35
2023-01-31T07:20:05.120Z,1012.35
2023-01-31T07:21:05.131Z,1012.36
2023-01-31T07:22:05.091Z,1012.33
2023-01-31T07:23:05.127Z,1012.28
2023-01-31T07:24:05.072Z,1012.21
2023-01-31T07:25:05.070Z,1012.28
2023-01-31T07:26:05.057Z,1012.29
2023-01-31T07:27:05.057Z,1012.35
2023-01-31T07:28:05.046Z,1012.42
2023-01-31T07:29:05.044Z,1012.43
2023-01-31T07:30:05.002Z,1012.37
2023-01-31T07:31:05.025Z,1012.45
2023-01-31T07:32:04.984Z,1012.45
2023-01-31T07:33:04.995Z,1012.48
2023-01-31T07:34:05.020Z,1012.43
2023-01-31T07:35:04.978Z,1012.49
2023-01-31T07:36:04.980Z,1012.41
2023-01-31T07:37:05.015Z,1012.43
2023-01-31T07:38:04.924Z,1012.39
2023-01-31T07:39:04.943Z,1012.43
2023-01-31T07:40:04.903Z,1012.44
2023-01-31T07:41:04.892Z,1012.39
2023-01-31T07:42:04.892Z,1012.38
2023-01-31T07:43:04.871Z,1012.47
2023-01-31T07:44:04.903Z,1012.41
2023-01-31T07:45:22.042Z,1012.45
2023-01-31T07:46:05.887Z,1012.47
2023-01-31T07:47:04.859Z,1012.44
2023-01-31T07:48:04.811Z,1012.49
2023-01-31T07:49:04.814Z,1012.46
2023-01-31T07:50:04.790Z,1012.48
2023-01-31T07:51:04.787Z,1012.50
2023-01-31T07:52:04.795Z,1012.39
2023-01-31T07:53:04.775Z,1012.38
2023-01-31T07:54:04.784Z,1012.40
2023-01-31T07:55:04.780Z,1012.38
2023-01-31T07:56:04.725Z,1012.29
2023-01-31T07:57:04.752Z,1012.35
2023-01-31T07:58:04.741Z,1012.32
2023-01-31T07:59:04.704Z,1012.38
2023-01-31T08:00:04.731Z,1012.36
2023-01-31T08:01:04.706Z,1012.37
2023-01-31T08:02:04.683Z,1012.36
2023-01-31T08:03:04.681Z,1012.30
2023-01-31T08:04:19.474Z,1012.34
2023-01-31T08:05:05.754Z,1012.34
2023-01-31T08:06:04.625Z,1012.34
2023-01-31T08:07:04.643Z,1012.37
2023-01-31T08:08:04.597Z,1012.30
2023-01-31T08:09:04.593Z,1012.38
2023-01-31T08:10:04.598Z,1012.30
2023-01-31T08:11:04.566Z,1012.31
2023-01-31T08:12:04.587Z,1012.31
2023-01-31T08:13:04.556Z,1012.33
2023-01-31T08:14:04.545Z,1012.29
2023-01-31T08:15:04.545Z,1012.24
2023-01-31T08:16:04.544Z,1012.25
2023-01-31T08:17:04.578Z,1012.36
2023-01-31T08:18:06.409Z,1012.32
2023-01-31T08:19:04.510Z,1012.23
2023-01-31T08:20:04.478Z,1012.27
2023-01-31T08:21:04.498Z,1012.29
2023-01-31T08:22:04.492Z,1012.29
2023-01-31T08:23:04.457Z,1012.28
2023-01-31T08:24:04.468Z,1012.24
2023-01-31T08:25:04.428Z,1012.26
2023-01-31T08:26:04.435Z,1012.33
2023-01-31T08:27:04.425Z,1012.31
2023-01-31T08:28:04.393Z,1012.24
2023-01-31T08:29:04.387Z,1012.23
2023-01-31T08:30:04.380Z,1012.17
2023-01-31T08:31:08.909Z,1012.16
2023-01-31T08:32:04.554Z,1012.16
2023-01-31T08:33:04.356Z,1012.14
2023-01-31T08:34:04.333Z,1012.20
2023-01-31T08:35:04.328Z,1012.17
2023-01-31T08:36:04.312Z,1012.19
2023-01-31T08:37:04.373Z,1012.12
2023-01-31T08:38:16.094Z,1012.13
2023-01-31T08:39:05.393Z,1012.14
2023-01-31T08:40:04.258Z,1012.15
2023-01-31T08:41:04.256Z,1012.09
2023-01-31T08:42:04.289Z,1012.11
2023-01-31T08:43:04.264Z,1012.20
2023-01-31T08:44:04.829Z,1012.16
2023-01-31T08:45:04.207Z,1012.18
2023-01-31T08:46:04.211Z,1012.11
2023-01-31T08:47:04.191Z,1012.15
2023-01-31T08:48:04.233Z,1012.21
2023-01-31T08:49:04.177Z,1012.22
2023-01-31T08:50:04.171Z,1012.15
2023-01-31T08:51:04.155Z,1012.16
2023-01-31T08:52:04.136Z,1012.19
2023-01-31T08:53:04.167Z,1012.15
2023-01-31T08:54:04.122Z,1012.12
2023-01-31T08:55:04.101Z,1012.24
2023-01-31T08:56:05.350Z,1012.11
2023-01-31T08:57:04.098Z,1012.10
2023-01-31T08:58:04.085Z,1012.17
2023-01-31T08:59:04.060Z,1012.15
2023-01-31T09:00:04.046Z,1012.11
2023-01-31T09:01:04.048Z,1012.14
2023-01-31T09:02:04.083Z,1012.20
2023-01-31T09:03:04.104Z,1012.08
2023-01-31T09:04:04.034Z,1012.16
2023-01-31T09:05:03.999Z,1012.10
2023-01-31T09:06:03.983Z,1012.09
2023-01-31T09:07:03.973Z,1012.09
2023-01-31T09:08:03.995Z,1012.10
2023-01-31T09:09:03.968Z,1012.14
2023-01-31T09:10:03.943Z,1012.08
2023-01-31T09:11:03.957Z,1012.03
2023-01-31T09:12:03.931Z,1012.04
2023-01-31T09:13:03.932Z,1012.06
2023-01-31T09:14:03.901Z,1012.08
2023-01-31T09:15:03.889Z,1011.97
2023-01-31T09:16:03.881Z,1012.01
2023-01-31T09:17:04.001Z,1012.01
2023-01-31T09:18:04.146Z,1012.03
2023-01-31T09:19:03.844Z,1011.98
2023-01-31T09:20:03.878Z,1011.98
2023-01-31T09:21:03.830Z,1012.05
2023-01-31T09:22:03.814Z,1011.87
2023-01-31T09:23:03.982Z,1011.84
2023-01-31T09:24:03.929Z,1011.88
2023-01-31T09:25:03.779Z,1011.84
2023-01-31T09:26:03.776Z,1011.79
2023-01-31T09:27:03.765Z,1011.80
2023-01-31T09:28:03.835Z,1011.84
2023-01-31T09:29:03.754Z,1011.87
2023-01-31T09:30:03.736Z,1011.80
2023-01-31T09:31:03.906Z,1011.90
2023-01-31T09:32:03.704Z,1011.81
2023-01-31T09:33:03.982Z,1011.75
2023-01-31T09:34:03.685Z,1011.77
2023-01-31T09:35:03.675Z,1011.74
2023-01-31T09:36:03.687Z,1011.68
2023-01-31T09:37:03.650Z,1011.67
2023-01-31T09:38:03.669Z,1011.70
2023-01-31T09:39:03.644Z,1011.70
2023-01-31T09:40:03.629Z,1011.67
2023-01-31T09:41:03.622Z,1011.70
2023-01-31T09:42:03.597Z,1011.68
2023-01-31T09:43:03.614Z,1011.62
2023-01-31T09:44:03.581Z,1011.70
2023-01-31T09:45:03.594Z,1011.64
2023-01-31T09:46:03.551Z,1011.66
2023-01-31T09:47:03.596Z,1011.65
2023-01-31T09:48:03.548Z,1011.66
2023-01-31T09:49:03.524Z,1011.64
2023-01-31T09:50:03.656Z,1011.64
2023-01-31T09:51:03.500Z,1011.56
2023-01-31T09:52:03.512Z,1011.57
2023-01-31T09:53:03.474Z,1011.50
2023-01-31T09:54:03.468Z,1011.47
2023-01-31T09:55:03.464Z,1011.52
2023-01-31T09:56:03.462Z,1011.41
2023-01-31T09:57:03.442Z,1011.48
2023-01-31T09:58:03.428Z,1011.45
2023-01-31T09:59:03.413Z,1011.43
2023-01-31T10:00:03.409Z,1011.39
2023-01-31T10:01:03.459Z,1011.41
2023-01-31T10:02:03.377Z,1011.37
2023-01-31T10:03:03.367Z,1011.40
2023-01-31T10:04:03.408Z,1011.35
2023-01-31T10:05:03.341Z,1011.32
2023-01-31T10:06:03.391Z,1011.37
2023-01-31T10:07:03.324Z,1011.42
2023-01-31T10:08:03.342Z,1011.32
2023-01-31T10:09:03.303Z,1011.36
2023-01-31T10:10:03.358Z,1011.35
2023-01-31T10:11:03.281Z,1011.30
2023-01-31T10:12:03.267Z,1011.21
2023-01-31T10:13:03.266Z,1011.23
2023-01-31T10:14:03.247Z,1011.27
2023-01-31T10:15:03.234Z,1011.27
2023-01-31T10:16:03.256Z,1011.18
2023-01-31T10:17:03.268Z,1011.25
2023-01-31T10:18:03.203Z,1011.22
2023-01-31T10:19:03.201Z,1011.17
2023-01-31T10:20:03.183Z,1011.14
2023-01-31T10:21:05.202Z,1011.19
2023-01-31T10:22:03.163Z,1011.15
2023-01-31T10:23:03.145Z,1011.16
2023-01-31T10:24:03.160Z,1011.04
2023-01-31T10:25:03.122Z,1011.06
2023-01-31T10:26:03.119Z,1011.04
2023-01-31T10:27:03.124Z,1011.07
2023-01-31T10:28:03.092Z,1011.06
2023-01-31T10:29:03.082Z,1011.08
2023-01-31T10:30:03.074Z,1011.06
2023-01-31T10:31:03.145Z,1011.07
2023-01-31T10:32:03.082Z,1011.04
2023-01-31T10:33:03.041Z,1011.00
2023-01-31T10:34:03.030Z,1010.84
2023-01-31T10:35:03.017Z,1010.88
2023-01-31T10:36:03.007Z,1010.81
2023-01-31T10:37:03.022Z,1010.87
2023-01-31T10:38:02.984Z,1010.70
2023-01-31T10:39:02.976Z,1010.84
2023-01-31T10:40:02.983Z,1010.79
2023-01-31T10:41:02.970Z,1010.79
2023-01-31T10:42:02.941Z,1010.78
2023-01-31T10:43:02.978Z,1010.73
2023-01-31T10:44:02.918Z,1010.71
2023-01-31T10:45:02.895Z,1010.69
2023-01-31T10:46:03.014Z,1010.69
2023-01-31T10:47:02.885Z,1010.68
2023-01-31T10:48:02.893Z,1010.70
2023-01-31T10:49:02.860Z,1010.64
2023-01-31T10:50:02.852Z,1010.62
2023-01-31T10:51:02.843Z,1010.61
2023-01-31T10:52:02.829Z,1010.63
2023-01-31T10:53:02.843Z,1010.56
2023-01-31T10:54:02.810Z,1010.62
2023-01-31T10:55:02.793Z,1010.58
2023-01-31T10:56:02.864Z,1010.54
2023-01-31T10:57:02.778Z,1010.57
2023-01-31T10:58:02.768Z,1010.54
2023-01-31T10:59:02.780Z,1010.54
2023-01-31T11:00:03.102Z,1010.54
2023-01-31T11:01:02.801Z,1010.45
2023-01-31T11:02:02.726Z,1010.41
2023-01-31T11:03:02.701Z,1010.31
2023-01-31T11:04:02.695Z,1010.28
2023-01-31T11:05:02.691Z,1010.29
2023-01-31T11:06:02.699Z,1010.33
2023-01-31T11:07:02.665Z,1010.24
2023-01-31T11:08:02.659Z,1010.17
2023-01-31T11:09:02.636Z,1010.22
2023-01-31T11:10:02.631Z,1010.19
2023-01-31T11:11:02.626Z,1010.17
2023-01-31T11:12:02.649Z,1010.15
2023-01-31T11:13:02.599Z,1010.19
2023-01-31T11:14:02.615Z,1010.28
2023-01-31T11:15:02.567Z,1010.08
2023-01-31T11:16:02.561Z,1010.15
2023-01-31T11:17:02.548Z,1010.08
2023-01-31T11:18:02.544Z,1009.99
2023-01-31T11:19:02.604Z,1010.08
2023-01-31T11:20:02.523Z,1010.02
2023-01-31T11:21:02.508Z,1010.02
2023-01-31T11:22:02.497Z,1010.01
2023-01-31T11:23:02.482Z,1010.01
2023-01-31T11:24:02.543Z,1009.88
2023-01-31T11:25:02.468Z,1009.90
2023-01-31T11:26:02.464Z,1009.81
2023-01-31T11:27:02.439Z,1009.80
2023-01-31T11:28:02.454Z,1009.74
2023-01-31T11:29:02.451Z,1009.78
2023-01-31T11:30:02.493Z,1009.71
2023-01-31T11:31:02.442Z,1009.73
2023-01-31T11:32:02.429Z,1009.62
2023-01-31T11:33:02.372Z,1009.64
2023-01-31T11:34:02.413Z,1009.53
2023-01-31T11:35:02.376Z,1009.57
2023-01-31T11:36:02.338Z,1009.63
2023-01-31T11:37:02.327Z,1009.62
2023-01-31T11:38:02.332Z,1009.62
2023-01-31T11:39:02.313Z,1009.60
2023-01-31T11:40:02.332Z,1009.61
2023-01-31T11:41:02.286Z,1009.44
2023-01-31T11:42:02.280Z,1009.57
2023-01-31T11:43:03.320Z,1009.53
2023-01-31T11:44:02.285Z,1009.58
2023-01-31T11:45:02.308Z,1009.53
2023-01-31T11:46:02.423Z,1009.53
2023-01-31T11:47:02.229Z,1009.54
2023-01-31T11:48:02.214Z,1009.57
2023-01-31T11:49:02.205Z,1009.50
2023-01-31T11:50:02.218Z,1009.49
2023-01-31T11:51:02.342Z,1009.48
2023-01-31T11:52:02.174Z,1009.40
2023-01-31T11:53:02.157Z,1009.44
2023-01-31T11:54:02.144Z,1009.49
2023-01-31T11:55:02.229Z,1009.38
2023-01-31T11:56:02.155Z,1009.33
2023-01-31T11:57:02.127Z,1009.31
2023-01-31T11:58:02.105Z,1009.29
2023-01-31T11:59:02.087Z,1009.22
2023-01-31T12:00:02.104Z,1009.19
2023-01-31T12:01:02.111Z,1009.13
2023-01-31T12:02:02.219Z,1009.08
2023-01-31T12:03:02.047Z,1008.99
2023-01-31T12:04:04.082Z,1008.93
2023-01-31T12:05:02.066Z,1008.89